Meteo Giornale » Osservazioni meteo Stati Uniti (USA) » Oak Ridge
ore: 20:53 - Osservazioni Meteo Oak Ridge
Lat. 36° 1' N Lon. 84° 14' W Alt. 279 metri s.l.m.
27 °C
Sereno
Temp. 24 Ore
21 °C
32 °C
Nord
0 Km/h
Dew point 23 °C
Umidità 78 %
Visibilità 10 Km
Il sole sorge alle ore 07:08
Il sole tramonta alle ore 20:06
| Data e Ora | Cielo e Fenomeni | T °C | DP °C | Um. % | Pres. hPa | Vis. km | Vento km/h | |
|---|---|---|---|---|---|---|---|---|
| Oggi h: 20:53 | Sereno | 27 | 23 | 78 | 1019 | 10 | N 0 | |
| Oggi h: 19:53 | Sereno | 29 | 23 | 70 | 1019 | 10 | N 0 | |
| Oggi h: 18:53 | Sereno | 32 | 21 | 52 | 1020 | 10 | N 0 | |
| Oggi h: 17:53 | Molto Nuvoloso | 32 | 19 | 46 | 1020 | 10 | N 0 | |
| Oggi h: 16:53 | Molto Nuvoloso | 32 | 22 | 55 | 1020 | 10 | N 0 | |
| Oggi h: 15:53 | Coperto | 30 | 22 | 62 | 1021 | 10 | N 0 | |
| Oggi h: 14:53 | Coperto | 31 | 22 | 58 | 1021 | 10 | N 0 | |
| Oggi h: 13:53 | Molto Nuvoloso | 32 | 20 | 49 | 1022 | 10 | N 5.5 | |
| Oggi h: 12:53 | Sereno | 32 | 21 | 52 | 1022 | 10 | O 7.4 | |
| Oggi h: 11:53 | Sereno | 31 | 21 | 55 | 1022 | 10 | O 7.4 | |
| Oggi h: 10:53 | Sereno | 29 | 22 | 66 | 1022 | 10 | N 0 | |
| Oggi h: 09:53 | Sereno | 26 | 22 | 78 | 1022 | 10 | N 0 | |
| Oggi h: 08:53 | Sereno | 23 | 21 | 88 | 1022 | 10 | N 0 | |
| Oggi h: 08:05 | Nuvoloso | 22 | 20 | 88 | 1022 | 10 | N 0 | |
| Oggi h: 07:53 | Sereno | 22 | 20 | 88 | 1022 | 10 | N 0 | |
| Oggi h: 06:53 | Sereno | 21 | 20 | 94 | 1021 | 10 | N 0 | |
| Oggi h: 05:53 | Sereno | 21 | 21 | 100 | 1021 | 14 | N 0 | |
| Oggi h: 04:53 | Sereno | 22 | 21 | 94 | 1021 | 10 | N 0 | |
| Oggi h: 03:53 | Sereno | 22 | 21 | 94 | 1020 | 10 | N 0 | |
| Oggi h: 02:53 | Sereno | 22 | 21 | 94 | 1021 | 10 | N 0 | |
| Oggi h: 01:53 | Sereno | 23 | 22 | 94 | 1021 | 10 | N 0 | |
| Oggi h: 00:53 | Sereno | 23 | 22 | 94 | 1021 | 10 | N 0 | |
| Ieri h: 23:53 | Sereno | 23 | 22 | 94 | 1021 | 10 | N 0 | |
| Ieri h: 22:53 | Sereno | 24 | 22 | 88 | 1021 | 10 | N 0 | |
| Ieri h: 21:53 | Poco Nuvoloso | 26 | 22 | 78 | 1021 | 10 | N 0 | |



